Time;durP1;ratioP1;P1;durP2;ratioP2;P2;SDS_P1;SDS_P2;PMS_P1;PMS_P2;Temp;Humidity;BMP_temperature;BMP_pressure;BME280_temperature;BME280_humidity;BME280_pressure;Samples;Min_cycle;Max_cycle;Signal;HPM_P1;HPM_P2
2022/03/21 00:00:52;;;;;;;12.13;10.82;;;17.30;78.30;;;;;;4226965;28;20233;-75
2022/03/21 00:02:55;;;;;;;12.45;11.23;;;17.30;78.20;;;;;;4229849;28;20262;-75
2022/03/21 00:04:57;;;;;;;12.50;11.20;;;17.30;78.20;;;;;;4229629;28;20244;-75
2022/03/21 00:06:59;;;;;;;12.13;10.90;;;17.30;78.30;;;;;;4229592;28;20263;-75
2022/03/21 00:09:02;;;;;;;12.57;11.02;;;17.30;78.20;;;;;;4230037;28;21043;-75
2022/03/21 00:11:04;;;;;;;14.23;11.57;;;17.30;78.20;;;;;;4227939;28;20278;-75
2022/03/21 00:13:08;;;;;;;12.32;11.15;;;17.30;78.30;;;;;;4229841;28;20217;-75
2022/03/21 00:15:10;;;;;;;12.98;10.98;;;17.30;78.20;;;;;;4229522;28;20616;-75
2022/03/21 00:17:14;;;;;;;12.13;10.85;;;17.30;78.30;;;;;;4229282;28;20264;-75
2022/03/21 00:19:16;;;;;;;11.32;9.98;;;17.30;78.30;;;;;;4228268;28;20642;-75
2022/03/21 00:21:19;;;;;;;12.40;11.07;;;17.30;78.40;;;;;;4228251;28;20237;-75
2022/03/21 00:23:22;;;;;;;12.20;10.98;;;17.30;78.30;;;;;;4229799;28;20213;-75
2022/03/21 00:25:25;;;;;;;12.50;11.20;;;17.30;78.30;;;;;;4229697;28;20218;-75
2022/03/21 00:27:27;;;;;;;12.23;10.57;;;17.30;78.20;;;;;;4229257;28;20623;-75
2022/03/21 00:29:30;;;;;;;12.27;10.98;;;17.30;78.30;;;;;;4229251;28;20210;-75
2022/03/21 00:31:32;;;;;;;11.32;10.23;;;17.30;78.20;;;;;;4228322;28;20268;-75
2022/03/21 00:33:36;;;;;;;12.32;11.02;;;17.30;78.30;;;;;;4226162;28;20596;-75
2022/03/21 00:35:39;;;;;;;12.10;10.50;;;17.30;78.30;;;;;;4225343;28;20964;-75
2022/03/21 00:37:42;;;;;;;12.57;10.75;;;17.30;78.30;;;;;;4227987;28;20271;-75
2022/03/21 00:39:44;;;;;;;11.27;9.85;;;17.30;78.20;;;;;;4228696;28;20283;-75
2022/03/21 00:41:47;;;;;;;12.68;11.38;;;17.30;78.30;;;;;;4229448;28;20233;-75
2022/03/21 00:43:52;;;;;;;12.80;11.60;;;17.20;78.20;;;;;;4228802;28;20262;-75
2022/03/21 00:45:57;;;;;;;12.30;11.10;;;17.30;78.20;;;;;;4222801;28;20222;-75
2022/03/21 00:47:59;;;;;;;11.13;10.13;;;17.20;78.20;;;;;;4222728;28;20213;-75
2022/03/21 00:50:04;;;;;;;11.75;10.65;;;17.20;78.20;;;;;;4228988;28;20222;-75
2022/03/21 00:52:07;;;;;;;12.65;11.35;;;17.20;78.30;;;;;;4228044;28;20263;-75
2022/03/21 00:54:10;;;;;;;11.77;10.57;;;17.20;78.20;;;;;;4213033;28;20226;-75
2022/03/21 00:56:12;;;;;;;12.02;10.82;;;17.20;78.10;;;;;;4229085;28;20222;-75
2022/03/21 00:58:15;;;;;;;12.05;10.75;;;17.20;78.20;;;;;;4226585;28;20231;-75
2022/03/21 01:00:19;;;;;;;12.57;11.27;;;17.20;78.20;;;;;;4228897;28;20243;-75
2022/03/21 01:02:22;;;;;;;12.52;11.23;;;17.20;78.20;;;;;;4228227;28;20302;-75
2022/03/21 01:04:24;;;;;;;13.00;11.60;;;17.20;78.20;;;;;;4228412;28;20240;-75
2022/03/21 01:06:29;;;;;;;12.10;10.90;;;17.20;78.10;;;;;;4228876;28;20226;-75
2022/03/21 01:08:31;;;;;;;13.20;11.55;;;17.20;78.10;;;;;;4228828;28;20221;-75
2022/03/21 01:10:34;;;;;;;11.35;10.25;;;17.20;78.20;;;;;;4228268;28;20275;-75
2022/03/21 01:12:37;;;;;;;12.38;11.05;;;17.20;78.20;;;;;;4228672;28;20283;-75
2022/03/21 01:14:39;;;;;;;12.25;10.95;;;17.20;78.20;;;;;;4226689;28;20267;-75
2022/03/21 01:16:42;;;;;;;11.48;10.30;;;17.20;78.20;;;;;;4228824;28;20666;-75
2022/03/21 01:18:45;;;;;;;12.23;11.02;;;17.20;78.30;;;;;;4228279;28;20217;-75
2022/03/21 01:20:47;;;;;;;12.32;11.07;;;17.20;78.20;;;;;;4227591;28;20259;-75
2022/03/21 01:22:51;;;;;;;14.05;11.65;;;17.20;78.10;;;;;;4218291;28;20233;-75
2022/03/21 01:24:53;;;;;;;12.70;11.32;;;17.20;78.20;;;;;;4226274;28;20623;-75
2022/03/21 01:26:56;;;;;;;12.15;10.68;;;17.10;78.10;;;;;;4228119;28;20217;-75
2022/03/21 01:28:58;;;;;;;11.63;10.50;;;17.20;78.20;;;;;;4228601;28;20222;-74
2022/03/21 01:31:00;;;;;;;13.52;11.10;;;17.20;78.20;;;;;;4225730;28;20232;-74
2022/03/21 01:33:03;;;;;;;13.13;11.50;;;17.10;78.10;;;;;;4225041;28;20349;-74
2022/03/21 01:35:06;;;;;;;11.55;10.45;;;17.10;78.10;;;;;;4227661;28;20662;-74
2022/03/21 01:37:09;;;;;;;11.75;10.55;;;17.10;78.10;;;;;;4228168;28;20218;-74
2022/03/21 01:39:12;;;;;;;12.02;10.70;;;17.10;78.00;;;;;;4228179;28;20286;-74
2022/03/21 01:41:15;;;;;;;11.48;10.38;;;17.10;78.10;;;;;;4228408;28;20214;-74
2022/03/21 01:43:17;;;;;;;14.85;12.10;;;17.10;78.20;;;;;;4228262;28;20217;-74
2022/03/21 01:45:20;;;;;;;12.77;11.02;;;17.10;78.00;;;;;;4228259;28;20257;-74
2022/03/21 01:47:23;;;;;;;12.38;10.98;;;17.10;78.00;;;;;;4228538;28;20254;-74
2022/03/21 01:49:26;;;;;;;11.73;10.52;;;17.10;78.10;;;;;;4228413;28;20295;-75
2022/03/21 01:51:29;;;;;;;12.10;11.00;;;17.10;78.10;;;;;;4226284;28;20279;-74
2022/03/21 01:55:53;;;;;;;12.80;11.18;;;17.10;78.00;;;;;;4228376;28;20662;-74
2022/03/21 01:57:58;;;;;;;11.45;10.27;;;17.10;78.00;;;;;;4228059;28;20673;-74
2022/03/21 02:00:01;;;;;;;12.05;10.90;;;17.10;78.00;;;;;;4228090;28;20227;-74
2022/03/21 02:02:05;;;;;;;12.68;11.40;;;17.10;78.00;;;;;;4227896;28;20306;-74
2022/03/21 02:04:08;;;;;;;12.20;10.82;;;17.10;78.10;;;;;;4227917;28;20221;-74
2022/03/21 02:06:11;;;;;;;12.27;11.00;;;17.10;77.90;;;;;;4228102;28;20725;-75
2022/03/21 02:08:13;;;;;;;12.27;10.93;;;17.10;78.80;;;;;;4226808;28;20226;-74
2022/03/21 02:10:16;;;;;;;11.77;10.57;;;17.10;78.00;;;;;;4228108;28;20213;-74
2022/03/21 02:12:20;;;;;;;11.40;10.30;;;17.10;78.00;;;;;;4227866;28;20274;-75
2022/03/21 02:14:22;;;;;;;13.00;11.60;;;17.00;78.00;;;;;;4227902;28;20225;-74
2022/03/21 02:16:27;;;;;;;12.02;10.68;;;17.10;78.00;;;;;;4227841;28;20283;-74
2022/03/21 02:18:30;;;;;;;12.93;11.57;;;17.00;78.00;;;;;;4227526;28;20649;-75
2022/03/21 02:20:35;;;;;;;11.93;10.68;;;17.10;78.00;;;;;;4227851;28;20213;-74
2022/03/21 02:22:51;;;;;;;12.20;10.88;;;17.00;77.90;;;;;;4227212;28;20275;-75
2022/03/21 02:25:01;;;;;;;12.02;10.75;;;17.00;77.90;;;;;;4227106;28;20217;-74
2022/03/21 02:27:07;;;;;;;12.05;10.77;;;17.00;77.90;;;;;;4227396;28;20274;-75
2022/03/21 02:29:10;;;;;;;11.77;10.68;;;17.00;77.90;;;;;;4226768;28;20218;-74
2022/03/21 02:31:13;;;;;;;13.10;11.70;;;17.00;78.00;;;;;;4221934;28;20275;-74
2022/03/21 02:33:17;;;;;;;11.65;10.48;;;17.00;78.00;;;;;;4227309;28;20259;-74
2022/03/21 02:35:20;;;;;;;12.30;11.00;;;17.00;77.90;;;;;;4215253;28;20350;-74
2022/03/21 02:37:26;;;;;;;12.50;11.23;;;17.00;78.00;;;;;;4226118;28;20278;-74
2022/03/21 02:39:29;;;;;;;12.40;11.13;;;17.00;77.90;;;;;;4227652;28;20293;-74
2022/03/21 02:41:31;;;;;;;11.90;10.70;;;17.00;78.00;;;;;;4227221;28;20287;-74
2022/03/21 02:43:50;;;;;;;13.02;11.73;;;17.00;77.90;;;;;;4230316;28;20626;-74
2022/03/21 02:45:52;;;;;;;12.13;10.82;;;17.00;78.00;;;;;;4230754;28;20222;-74
2022/03/21 02:47:55;;;;;;;12.63;11.32;;;17.00;77.90;;;;;;4222359;28;20283;-74
2022/03/21 02:50:00;;;;;;;12.50;11.20;;;17.00;77.90;;;;;;4228999;28;20604;-74
2022/03/21 02:52:05;;;;;;;11.73;10.00;;;17.00;78.00;;;;;;4230070;28;20266;-74
2022/03/21 02:54:07;;;;;;;11.70;10.50;;;17.00;77.90;;;;;;4230047;28;20275;-74
2022/03/21 02:56:10;;;;;;;11.35;10.18;;;17.00;77.90;;;;;;4229364;28;20213;-74
2022/03/21 02:58:12;;;;;;;11.90;10.70;;;17.00;77.90;;;;;;4229550;28;20214;-74
2022/03/21 03:00:17;;;;;;;11.50;10.30;;;16.90;77.80;;;;;;4231007;28;20217;-74
2022/03/21 03:02:19;;;;;;;15.13;11.07;;;17.00;78.00;;;;;;4230682;28;20258;-74
2022/03/21 03:04:21;;;;;;;12.02;10.90;;;16.90;77.80;;;;;;4230635;28;20258;-74
2022/03/21 03:06:24;;;;;;;12.13;10.95;;;16.90;77.80;;;;;;4231243;28;20218;-74
2022/03/21 03:08:26;;;;;;;12.13;10.93;;;16.90;77.80;;;;;;4229146;28;20225;-74
2022/03/21 03:10:28;;;;;;;12.85;11.55;;;16.90;77.80;;;;;;4230790;28;20217;-74
2022/03/21 03:12:31;;;;;;;12.90;11.60;;;16.90;78.60;;;;;;4229913;28;20234;-74
2022/03/21 03:14:33;;;;;;;13.48;11.05;;;16.90;77.80;;;;;;4230598;28;20602;-74
2022/03/21 03:16:37;;;;;;;12.52;10.80;;;16.90;77.80;;;;;;4230668;28;20217;-75
2022/03/21 03:18:44;;;;;;;11.93;10.55;;;16.90;77.80;;;;;;4229901;28;20255;-74
2022/03/21 03:20:49;;;;;;;12.00;10.75;;;16.90;77.90;;;;;;4226931;28;20610;-74
2022/03/21 03:22:52;;;;;;;12.35;11.05;;;16.90;77.80;;;;;;4228958;28;20213;-74
2022/03/21 03:24:55;;;;;;;13.05;11.32;;;16.90;77.80;;;;;;4230616;28;20267;-74
2022/03/21 03:26:57;;;;;;;12.65;11.35;;;16.90;77.80;;;;;;4230448;28;20210;-74
2022/03/21 03:29:00;;;;;;;11.90;10.43;;;16.90;77.80;;;;;;4228773;28;20218;-74
2022/03/21 03:31:02;;;;;;;12.57;11.27;;;16.90;77.80;;;;;;4231229;27;20209;-75
2022/03/21 03:33:06;;;;;;;12.23;10.90;;;16.90;77.80;;;;;;4230419;28;20241;-74
2022/03/21 03:35:09;;;;;;;12.27;11.07;;;16.90;77.80;;;;;;4230057;28;20210;-74
2022/03/21 03:37:12;;;;;;;12.05;10.68;;;16.90;77.70;;;;;;4230231;28;20274;-74
2022/03/21 03:39:14;;;;;;;12.10;10.90;;;16.90;77.80;;;;;;4229600;28;20286;-74
2022/03/21 03:41:17;;;;;;;12.00;10.85;;;16.90;77.70;;;;;;4230153;28;20209;-74
2022/03/21 03:43:19;;;;;;;12.48;11.15;;;16.90;77.90;;;;;;4229683;28;20291;-74
2022/03/21 03:45:21;;;;;;;12.45;11.15;;;16.80;77.90;;;;;;4228636;28;20319;-74
2022/03/21 03:47:24;;;;;;;11.55;10.45;;;16.80;77.60;;;;;;4230771;28;20259;-74
2022/03/21 03:49:27;;;;;;;11.93;10.68;;;16.80;77.70;;;;;;4229976;28;20750;-74
2022/03/21 03:51:30;;;;;;;12.45;11.18;;;16.80;77.60;;;;;;4230514;28;20263;-74
2022/03/21 03:53:33;;;;;;;11.85;10.65;;;16.80;77.60;;;;;;4229564;28;20306;-74
2022/03/21 03:55:35;;;;;;;14.25;11.77;;;16.80;77.60;;;;;;4228535;28;20217;-74
2022/03/21 03:57:38;;;;;;;11.95;10.75;;;16.80;77.60;;;;;;4229370;28;20258;-74
2022/03/21 03:59:40;;;;;;;12.82;11.52;;;16.80;77.60;;;;;;4229931;28;20342;-74
2022/03/21 04:01:42;;;;;;;12.35;11.05;;;16.80;77.60;;;;;;4230316;28;20218;-74
2022/03/21 04:03:46;;;;;;;12.77;11.48;;;16.80;77.60;;;;;;4230100;28;20660;-74
2022/03/21 04:05:50;;;;;;;11.88;10.70;;;16.80;77.70;;;;;;4228710;28;20267;-74
2022/03/21 04:07:53;;;;;;;13.52;10.98;;;16.80;78.40;;;;;;4229216;28;20217;-74
2022/03/21 04:09:55;;;;;;;13.18;11.27;;;16.80;77.60;;;;;;4229693;28;20217;-75
2022/03/21 04:11:57;;;;;;;12.23;10.93;;;16.80;77.60;;;;;;4229746;28;20214;-75
2022/03/21 04:14:00;;;;;;;12.85;11.55;;;16.80;77.60;;;;;;4229969;28;20370;-75
2022/03/21 04:16:02;;;;;;;12.70;10.82;;;16.80;77.60;;;;;;4228868;28;20279;-75
2022/03/21 04:18:05;;;;;;;13.20;11.80;;;16.80;77.60;;;;;;4229673;28;20666;-75
2022/03/21 04:20:09;;;;;;;12.40;10.77;;;16.70;77.60;;;;;;4218063;28;20272;-76
2022/03/21 04:22:13;;;;;;;12.70;11.40;;;16.70;77.60;;;;;;4222269;28;20221;-75
2022/03/21 04:24:15;;;;;;;12.45;11.20;;;16.80;77.60;;;;;;4229635;28;20255;-75
2022/03/21 04:26:18;;;;;;;13.05;11.75;;;16.70;77.50;;;;;;4229266;28;20263;-75
2022/03/21 04:28:20;;;;;;;11.70;10.57;;;16.70;77.50;;;;;;4228197;28;20214;-75
2022/03/21 04:30:23;;;;;;;13.65;12.07;;;16.80;77.60;;;;;;4225612;28;20251;-75
2022/03/21 04:32:26;;;;;;;13.35;11.55;;;16.70;77.40;;;;;;4227797;28;20270;-75
2022/03/21 04:34:29;;;;;;;14.10;11.25;;;16.80;77.60;;;;;;4227554;28;20300;-75
2022/03/21 04:36:31;;;;;;;11.88;10.60;;;16.70;77.50;;;;;;4218678;27;20219;-75
2022/03/21 04:38:35;;;;;;;11.40;10.20;;;16.70;77.50;;;;;;4225849;28;20261;-75
2022/03/21 04:40:37;;;;;;;12.30;11.00;;;16.70;77.50;;;;;;4228943;28;20219;-75
2022/03/21 04:42:40;;;;;;;12.63;11.32;;;16.70;77.50;;;;;;4229534;28;20283;-75
2022/03/21 04:44:44;;;;;;;13.95;11.30;;;16.70;77.60;;;;;;4229201;28;20275;-76
2022/03/21 04:46:47;;;;;;;12.30;11.07;;;16.70;77.40;;;;;;4229072;28;20271;-74
2022/03/21 04:48:49;;;;;;;13.32;11.50;;;16.70;77.40;;;;;;4228972;28;20638;-74
2022/03/21 04:50:52;;;;;;;12.93;11.57;;;16.70;77.40;;;;;;4227340;28;20218;-74
2022/03/21 04:52:54;;;;;;;14.90;10.50;;;16.70;77.50;;;;;;4227736;28;20221;-74
2022/03/21 04:54:58;;;;;;;12.40;11.10;;;16.70;77.50;;;;;;4229792;28;20285;-74
2022/03/21 04:57:00;;;;;;;14.05;11.55;;;16.70;77.50;;;;;;4229055;28;20217;-74
2022/03/21 04:59:02;;;;;;;13.75;11.10;;;16.70;77.40;;;;;;4228832;28;20274;-74
2022/03/21 05:01:05;;;;;;;12.77;11.55;;;16.70;77.50;;;;;;4229058;28;20221;-74
2022/03/21 05:03:08;;;;;;;12.65;10.95;;;16.70;77.40;;;;;;4226868;28;20221;-74
2022/03/21 05:05:10;;;;;;;12.73;11.40;;;16.70;77.40;;;;;;4228491;28;20283;-74
2022/03/21 05:07:14;;;;;;;12.30;11.10;;;16.70;77.40;;;;;;4228448;28;20225;-74
2022/03/21 05:09:16;;;;;;;11.85;10.63;;;16.70;77.50;;;;;;4217226;28;20214;-74
2022/03/21 05:11:20;;;;;;;12.65;11.35;;;16.70;77.40;;;;;;4228822;28;20214;-74
2022/03/21 05:13:22;;;;;;;12.75;11.35;;;16.70;77.40;;;;;;4226908;28;20309;-74
2022/03/21 05:15:25;;;;;;;12.65;11.35;;;16.70;77.50;;;;;;4228809;28;20217;-74
2022/03/21 05:17:29;;;;;;;12.48;11.27;;;16.70;77.50;;;;;;4228797;28;20254;-74
2022/03/21 05:19:32;;;;;;;13.07;10.93;;;16.70;77.40;;;;;;4227449;27;20271;-74
2022/03/21 05:21:34;;;;;;;11.75;10.55;;;16.70;77.50;;;;;;4228666;28;20218;-74
2022/03/21 05:37:32;;;;;;;13.45;11.57;;;16.60;77.30;;;;;;4228758;28;20201;-74
2022/03/21 05:40:31;;;;;;;12.30;11.10;;;16.60;77.20;;;;;;4226425;28;20642;-74
2022/03/21 05:41:57;;;;;;;11.68;10.48;;;16.60;77.20;;;;;;4226892;28;20340;-74
2022/03/21 05:44:01;;;;;;;12.45;11.15;;;16.60;77.20;;;;;;4227331;28;20214;-74
2022/03/21 05:46:04;;;;;;;12.98;11.40;;;16.60;77.20;;;;;;4228718;28;20217;-74
2022/03/21 05:50:26;;;;;;;12.13;10.77;;;16.60;77.40;;;;;;4228153;28;20193;-74
2022/03/21 05:52:28;;;;;;;13.00;11.70;;;16.60;77.20;;;;;;4227951;28;20222;-74
2022/03/21 05:54:31;;;;;;;12.63;10.93;;;16.60;77.40;;;;;;4228617;28;20750;-74
2022/03/21 05:56:34;;;;;;;13.70;11.23;;;16.60;77.40;;;;;;4223279;28;20291;-74
2022/03/21 05:58:36;;;;;;;12.95;11.05;;;16.60;77.40;;;;;;4226208;28;20213;-74
2022/03/21 06:00:39;;;;;;;12.95;11.55;;;16.60;77.20;;;;;;4224149;28;20736;-74
2022/03/21 06:02:42;;;;;;;13.38;10.80;;;16.60;77.30;;;;;;4228763;28;20247;-74
2022/03/21 06:04:45;;;;;;;13.35;11.05;;;16.60;77.20;;;;;;4227596;28;20251;-74
2022/03/21 06:06:48;;;;;;;11.57;10.35;;;16.60;77.20;;;;;;4223980;28;20226;-74
2022/03/21 06:08:51;;;;;;;12.02;10.73;;;16.60;78.10;;;;;;4227730;28;20222;-74
2022/03/21 06:11:03;;;;;;;14.32;11.63;;;16.70;77.20;;;;;;4227326;28;20217;-74
2022/03/21 06:13:06;;;;;;;13.82;11.60;;;16.70;77.40;;;;;;4227980;28;20271;-74
2022/03/21 06:15:10;;;;;;;12.63;11.10;;;16.70;77.40;;;;;;4222898;28;20312;-74
2022/03/21 06:17:13;;;;;;;12.75;11.18;;;16.70;77.00;;;;;;4227848;28;20219;-74
2022/03/21 06:19:16;;;;;;;12.13;10.93;;;16.70;77.40;;;;;;4229324;28;20209;-74
2022/03/21 06:21:18;;;;;;;11.68;10.40;;;16.70;77.40;;;;;;4231568;28;20217;-74
2022/03/21 06:23:21;;;;;;;11.90;10.57;;;16.70;77.20;;;;;;4231112;28;20263;-74
2022/03/21 06:25:23;;;;;;;12.20;10.70;;;16.70;77.20;;;;;;4221291;28;20263;-74
2022/03/21 06:27:26;;;;;;;12.10;10.80;;;16.80;77.50;;;;;;4226119;28;20225;-74
2022/03/21 06:29:29;;;;;;;12.07;10.40;;;16.80;77.50;;;;;;4228977;28;20970;-74
2022/03/21 06:31:31;;;;;;;11.27;10.07;;;16.80;77.50;;;;;;4229735;28;20266;-74
2022/03/21 06:33:35;;;;;;;13.45;11.65;;;16.80;77.50;;;;;;4228465;28;20269;-73
2022/03/21 06:35:37;;;;;;;12.20;10.85;;;16.80;77.50;;;;;;4230995;28;20237;-74
2022/03/21 06:37:41;;;;;;;12.98;10.52;;;16.80;77.50;;;;;;4222209;27;20243;-73
2022/03/21 06:39:44;;;;;;;12.10;10.82;;;16.90;77.60;;;;;;4226528;28;20598;-74
2022/03/21 06:41:46;;;;;;;13.50;10.82;;;16.80;77.60;;;;;;4231232;28;20468;-74
2022/03/21 06:43:49;;;;;;;13.38;10.68;;;16.90;77.70;;;;;;4231337;28;20278;-74
2022/03/21 06:45:52;;;;;;;12.18;10.45;;;16.90;77.60;;;;;;4231068;28;20266;-74
2022/03/21 06:47:54;;;;;;;11.85;10.65;;;16.90;77.60;;;;;;4230581;28;20213;-74
2022/03/21 06:49:57;;;;;;;11.55;10.38;;;16.90;77.60;;;;;;4230800;28;20267;-74
2022/03/21 06:52:02;;;;;;;11.90;10.25;;;17.00;77.80;;;;;;4230756;28;20218;-73
2022/03/21 06:54:05;;;;;;;11.98;10.52;;;16.90;77.70;;;;;;4229026;28;20225;-74
2022/03/21 06:56:07;;;;;;;13.20;10.25;;;17.00;77.70;;;;;;4229771;28;20221;-74
2022/03/21 06:58:11;;;;;;;11.50;9.90;;;17.00;77.70;;;;;;4227209;28;20326;-74
2022/03/21 07:00:14;;;;;;;11.32;10.20;;;17.00;77.80;;;;;;4231139;28;20209;-74
2022/03/21 07:02:17;;;;;;;13.02;10.13;;;17.00;78.00;;;;;;4230631;28;20217;-74
2022/03/21 07:04:19;;;;;;;14.43;11.10;;;17.00;77.90;;;;;;4230607;28;20218;-74
2022/03/21 07:06:23;;;;;;;12.38;10.70;;;17.00;77.70;;;;;;4230383;28;20214;-74
2022/03/21 07:08:25;;;;;;;11.65;9.90;;;17.10;77.80;;;;;;4229670;28;20222;-74
2022/03/21 07:10:28;;;;;;;11.63;9.90;;;17.10;77.70;;;;;;4228981;28;20218;-74
2022/03/21 07:12:30;;;;;;;11.10;9.73;;;17.10;77.80;;;;;;4230602;28;20266;-74
2022/03/21 07:14:33;;;;;;;11.70;10.40;;;17.10;78.00;;;;;;4230799;28;20230;-73
2022/03/21 07:16:35;;;;;;;11.88;9.73;;;17.10;77.90;;;;;;4230645;28;20735;-73
2022/03/21 07:18:38;;;;;;;11.75;10.55;;;17.10;78.30;;;;;;4231508;27;20275;-73
2022/03/21 07:20:43;;;;;;;16.17;11.93;;;17.00;78.90;;;;;;4230422;28;20270;-75
2022/03/21 07:22:46;;;;;;;15.45;11.85;;;16.90;78.30;;;;;;4229942;28;20218;-74
2022/03/21 07:24:49;;;;;;;15.32;12.05;;;16.80;79.10;;;;;;4222515;28;20262;-74
2022/03/21 07:26:52;;;;;;;15.80;12.20;;;16.70;77.50;;;;;;4229939;28;20221;-75
2022/03/21 07:28:54;;;;;;;21.75;14.70;;;16.80;78.20;;;;;;4230291;28;20258;-71
2022/03/21 07:30:57;;;;;;;54.58;18.08;;;16.80;78.90;;;;;;4230671;28;20236;-73
2022/03/21 07:32:59;;;;;;;28.90;13.73;;;16.80;83.10;;;;;;4228334;28;20266;-73
2022/03/21 07:35:01;;;;;;;36.88;15.65;;;16.90;86.80;;;;;;4230472;28;20628;-73
2022/03/21 07:37:04;;;;;;;51.20;15.45;;;16.90;85.60;;;;;;4229299;28;20669;-73
2022/03/21 07:39:08;;;;;;;30.40;16.95;;;17.00;87.20;;;;;;4230117;28;20241;-73
2022/03/21 07:41:10;;;;;;;35.80;20.98;;;17.00;90.00;;;;;;4228644;28;20282;-73
2022/03/21 07:43:13;;;;;;;42.53;22.88;;;17.00;90.50;;;;;;4227526;28;20291;-73
2022/03/21 07:47:35;;;;;;;44.00;19.08;;;16.80;90.40;;;;;;4230117;28;20201;-73
2022/03/21 07:49:37;;;;;;;27.60;16.33;;;16.90;91.00;;;;;;4230186;28;20226;-73
2022/03/21 07:51:43;;;;;;;33.65;15.65;;;17.00;90.80;;;;;;4229979;28;20226;-73
2022/03/21 07:53:45;;;;;;;28.05;16.60;;;17.00;91.00;;;;;;4212001;28;20214;-73
2022/03/21 07:55:49;;;;;;;311.63;37.45;;;17.00;91.10;;;;;;4215781;28;20233;-74
2022/03/21 07:57:51;;;;;;;183.95;32.97;;;16.70;90.40;;;;;;4213077;28;20280;-74
2022/03/21 07:59:54;;;;;;;142.37;31.20;;;15.90;86.70;;;;;;4206204;28;20215;-74
2022/03/21 08:01:57;;;;;;;96.53;29.83;;;15.20;85.30;;;;;;4204648;28;20277;-74
2022/03/21 08:04:03;;;;;;;71.50;26.23;;;14.70;85.10;;;;;;4208206;28;20213;-74
2022/03/21 08:06:10;;;;;;;88.73;26.43;;;14.60;86.40;;;;;;4194224;28;20214;-74
2022/03/21 08:08:12;;;;;;;78.03;24.20;;;15.10;86.40;;;;;;4213036;28;20219;-73
2022/03/21 08:10:16;;;;;;;77.33;23.57;;;15.60;86.90;;;;;;4211492;28;20218;-73
2022/03/21 08:12:19;;;;;;;66.10;22.53;;;16.00;86.70;;;;;;4208827;28;20211;-74
2022/03/21 08:14:22;;;;;;;66.97;22.90;;;16.30;87.00;;;;;;4204897;28;20268;-75
2022/03/21 08:16:24;;;;;;;69.82;21.13;;;16.50;86.90;;;;;;4203090;28;20619;-74
2022/03/21 08:18:26;;;;;;;57.42;20.10;;;16.70;87.50;;;;;;4207129;28;20339;-75
2022/03/21 08:20:33;;;;;;;56.92;18.77;;;16.80;87.50;;;;;;4203962;28;20635;-75
2022/03/21 08:22:35;;;;;;;44.30;17.02;;;16.90;87.40;;;;;;4201275;28;20214;-74
2022/03/21 08:24:38;;;;;;;52.63;17.45;;;17.10;88.00;;;;;;4206240;28;20280;-74
2022/03/21 08:26:40;;;;;;;43.08;15.75;;;17.20;87.90;;;;;;4205987;28;20214;-75
2022/03/21 08:28:45;;;;;;;53.58;17.33;;;17.20;87.60;;;;;;4199306;28;20237;-74
2022/03/21 08:30:47;;;;;;;46.30;15.95;;;17.30;87.60;;;;;;4205589;28;20568;-75
2022/03/21 08:32:50;;;;;;;54.90;17.23;;;17.30;87.80;;;;;;4215889;28;20268;-75
2022/03/21 08:34:53;;;;;;;46.58;14.38;;;17.30;87.30;;;;;;4207886;28;20296;-74
2022/03/21 08:36:55;;;;;;;40.05;14.10;;;17.40;87.90;;;;;;4210038;28;20218;-73
2022/03/21 08:38:57;;;;;;;43.25;14.98;;;17.40;87.80;;;;;;4210736;28;21991;-75
2022/03/21 08:40:59;;;;;;;35.22;13.60;;;17.40;88.20;;;;;;4206733;28;20218;-76
2022/03/21 08:43:02;;;;;;;37.20;14.02;;;17.50;88.60;;;;;;4204011;28;20572;-75
2022/03/21 08:45:07;;;;;;;37.25;13.05;;;17.60;88.20;;;;;;4191394;28;20216;-74
2022/03/21 08:47:10;;;;;;;25.70;12.27;;;17.80;88.20;;;;;;4208250;28;20260;-77
2022/03/21 08:49:26;;;;;;;28.92;11.32;;;17.90;88.00;;;;;;4212033;28;20214;-76
2022/03/21 08:51:28;;;;;;;29.42;11.88;;;17.90;88.00;;;;;;4202324;28;20271;-75
2022/03/21 08:53:32;;;;;;;23.45;11.75;;;18.00;88.00;;;;;;4211758;28;20275;-78
2022/03/21 08:55:34;;;;;;;29.52;11.93;;;18.00;88.20;;;;;;4209403;28;20368;-76
2022/03/21 08:57:37;;;;;;;42.28;13.73;;;18.00;88.30;;;;;;4206780;28;20705;-76
2022/03/21 08:59:39;;;;;;;24.80;10.43;;;18.00;89.80;;;;;;4209787;28;20308;-77
2022/03/21 09:01:43;;;;;;;21.48;11.15;;;18.10;89.00;;;;;;4210180;28;20264;-76
2022/03/21 09:03:45;;;;;;;22.10;11.20;;;18.10;88.60;;;;;;4200787;28;20606;-76
2022/03/21 09:05:48;;;;;;;26.30;11.50;;;18.20;88.60;;;;;;4204941;28;20564;-76
2022/03/21 09:07:52;;;;;;;35.88;12.13;;;18.30;88.60;;;;;;4197645;28;20215;-73
2022/03/21 09:09:55;;;;;;;30.75;11.25;;;18.30;89.10;;;;;;4192795;28;20244;-73
2022/03/21 09:12:00;;;;;;;25.20;11.20;;;18.40;90.10;;;;;;4204205;28;20291;-72
2022/03/21 09:14:03;;;;;;;39.83;11.38;;;18.40;91.00;;;;;;4206613;28;20253;-73
2022/03/21 09:16:06;;;;;;;30.33;11.45;;;18.40;90.40;;;;;;4203786;28;20237;-73
2022/03/21 09:18:10;;;;;;;32.05;10.95;;;18.40;89.30;;;;;;4206013;28;20658;-72
2022/03/21 09:20:14;;;;;;;32.15;10.93;;;18.40;89.60;;;;;;4205551;28;20711;-72
2022/03/21 09:22:17;;;;;;;28.95;11.00;;;18.40;89.50;;;;;;4200057;28;20210;-73
2022/03/21 09:24:19;;;;;;;21.55;10.27;;;18.40;89.60;;;;;;4205514;28;20648;-72
2022/03/21 09:26:21;;;;;;;22.38;9.85;;;18.40;91.20;;;;;;4203888;28;20276;-72
2022/03/21 09:28:24;;;;;;;26.30;9.15;;;18.50;91.40;;;;;;4195051;28;20207;-73
2022/03/21 09:30:26;;;;;;;23.95;9.43;;;18.40;91.30;;;;;;4203747;28;20278;-72
2022/03/21 09:32:28;;;;;;;23.63;9.95;;;18.50;91.40;;;;;;4207385;28;20263;-70
2022/03/21 09:34:33;;;;;;;17.45;8.93;;;18.50;91.20;;;;;;4199493;28;20226;-70
2022/03/21 09:36:36;;;;;;;20.02;8.35;;;18.50;91.30;;;;;;4204041;28;20242;-71
2022/03/21 09:38:38;;;;;;;22.50;8.88;;;18.50;91.60;;;;;;4213451;28;20233;-71
2022/03/21 09:40:41;;;;;;;20.45;8.50;;;18.50;91.40;;;;;;4219594;27;20286;-71
2022/03/21 09:42:45;;;;;;;20.45;8.48;;;18.50;91.40;;;;;;4220803;28;20263;-70
2022/03/21 09:44:50;;;;;;;14.38;8.02;;;18.50;91.70;;;;;;4219141;28;20267;-70
2022/03/21 09:46:54;;;;;;;19.63;8.43;;;18.50;91.60;;;;;;4221825;28;20275;-70
2022/03/21 09:48:57;;;;;;;18.17;8.68;;;18.60;91.70;;;;;;4219150;28;20210;-70
2022/03/21 09:51:03;;;;;;;18.13;7.97;;;18.60;91.90;;;;;;4223203;27;20278;-70
2022/03/21 09:53:06;;;;;;;17.70;8.13;;;18.60;91.70;;;;;;4222720;28;20257;-70
2022/03/21 09:55:09;;;;;;;16.45;8.43;;;18.60;91.80;;;;;;4221863;28;20221;-70
2022/03/21 09:57:12;;;;;;;23.88;8.27;;;18.60;92.00;;;;;;4214281;28;20770;-70
2022/03/21 09:59:14;;;;;;;19.52;8.20;;;18.60;90.40;;;;;;4216790;28;20280;-69
2022/03/21 10:01:18;;;;;;;14.88;7.90;;;18.60;91.70;;;;;;4214093;28;20229;-70
2022/03/21 10:03:20;;;;;;;18.20;7.93;;;18.60;91.80;;;;;;4213935;28;20215;-70
2022/03/21 10:05:37;;;;;;;17.88;8.10;;;18.70;92.00;;;;;;4222418;28;20263;-70
2022/03/21 10:07:40;;;;;;;14.18;8.30;;;18.70;92.20;;;;;;4216519;28;20267;-69
2022/03/21 10:09:43;;;;;;;22.67;9.00;;;18.80;90.30;;;;;;4210755;28;20211;-70
2022/03/21 10:11:51;;;;;;;20.83;9.25;;;18.80;90.10;;;;;;4216168;28;20617;-69
2022/03/21 10:13:53;;;;;;;18.48;8.35;;;18.80;91.00;;;;;;4214114;28;20271;-70
2022/03/21 10:16:15;;;;;;;14.98;8.60;;;18.70;90.50;;;;;;4214901;28;21002;-70
2022/03/21 10:18:18;;;;;;;18.02;8.02;;;18.60;90.50;;;;;;4219657;28;20753;-71
2022/03/21 10:20:33;;;;;;;15.40;7.50;;;18.50;90.70;;;;;;4228874;28;20274;-70
2022/03/21 10:22:43;;;;;;;17.65;7.22;;;18.60;90.60;;;;;;4219482;28;20218;-70
2022/03/21 10:24:48;;;;;;;17.55;8.25;;;18.80;90.60;;;;;;4226234;28;20267;-70
2022/03/21 10:26:50;;;;;;;20.33;7.80;;;18.80;91.60;;;;;;4225288;28;20213;-70
2022/03/21 10:28:55;;;;;;;16.13;7.15;;;18.90;91.90;;;;;;4219043;28;20276;-71
2022/03/21 10:30:57;;;;;;;16.00;7.85;;;19.00;92.10;;;;;;4224012;28;20213;-71
2022/03/21 10:33:00;;;;;;;14.25;7.18;;;19.00;92.20;;;;;;4226189;28;20612;-70
2022/03/21 10:35:06;;;;;;;13.70;7.30;;;19.00;92.20;;;;;;4219427;28;20272;-70
2022/03/21 10:37:10;;;;;;;15.35;7.55;;;19.00;92.00;;;;;;4218858;28;20230;-70
2022/03/21 10:39:13;;;;;;;15.15;8.32;;;19.00;91.00;;;;;;4222354;28;20281;-70
2022/03/21 10:41:17;;;;;;;16.35;7.43;;;19.00;90.60;;;;;;4217874;28;20260;-71
2022/03/21 10:43:19;;;;;;;12.65;6.65;;;19.00;91.60;;;;;;4221922;28;20251;-70
2022/03/21 10:45:23;;;;;;;17.27;7.43;;;19.10;91.80;;;;;;4216035;28;20222;-70
2022/03/21 10:47:25;;;;;;;15.60;6.95;;;19.10;92.20;;;;;;4220342;28;20241;-70